Weather at Tampa International Airport

Public forecast

Using degrees Fahrenheit for public forecast. Weather courtesy of forecast.io.

Current aviation weather report (METAR) for Tampa International Airport

Retrieved 2021/12/06 01:53 UTC (34 minutes ago):

KTPA 060153Z 01003KT 10SM BKN040 22/15 A3014 RMK AO2 SLP207 T02170150

Aviation forecast (TAF) for Tampa International Airport

Retrieved 2021-12-06 00:40 UTC (2 hours ago):

TAF KTPA 052338Z 0600/0706 34004KT P6SM SCT050 BKN250 FM060300 VRB03KT P6SM BKN250 FM060700 VRB03KT 6SM BR FEW010 SCT250 TEMPO 0609/0613 1SM BR BKN003 FM061500 17004KT P6SM FEW020 BKN250 FM061700 24007KT P6SM SCT050 BKN250 FM070100 VRB03KT P6SM SCT250